Oakland County International Airport
KPTK : now visible

Airfield :











YOU CAN JOIN US ON...

 
LOGIN :

Register | Disclaimer

   EN    FR    IT 

 









Legend :    VFR   Marginal VFR   IFR   Intensive IFR   Very Intensive IFR
Visi :
Ceiling :
>= 8 km
>= 3000ft
5 to 8 km
1000 to 3000 ft
1500m to 5 km
500 to 1000 ft
800 to 1500m
200 to 500 ft
< 800m
< 200 ft
Symbols :   Thunderstorms  Fog  Heavy snow  Heavy precipitations  Wind > 20 kt






- Airport Elevation : 980 ft


KPTK - Oakland County International

CURRENT METAR :
  • 161853Z 16007KT 10SM BKN047 23/12 A3014 RMK AO2 SLP201 T02330117

EXPIRED METARs :
  • 161753Z 19007KT 150V210 10SM BKN045 BKN060 24/13 A3016 RMK AO2 SLP208 T02390128 10244 20133 58007
  • 161653Z 13007KT 10SM SCT036 SCT055 23/13 A3016 RMK AO2 SLP210 MDT CU N-E-SE T02330133
  • 161633Z 12009KT 10SM BKN032 BKN055 23/14 A3017 RMK AO2 MDT CU S-W-N T02330139

TAF KPTK
Valid from the 16 at 18:00 until the 17 at 18:00 UTC


161729Z 1618/1718 13006KT P6SM SCT040
FM170000 09003KT P6SM SKC
FM170900 11003KT 5SM BR SKC
FM171300 19004KT P6SM SKC
FM171600 21007KT P6SM SCT045
KZOB FIR / North America



MET'MAP, your aeronautical weather chart ! - Copyright ORBIFLY December 2007 - Disclaimer

ORBIFLY MET'MAP TEAM :

Programming & Development : Alexandra Zaïnal
Concept & original design : Baudouin d'Aumeries
Assistance for programming : Marc-Olivier Méhu
Technical & hardware support : Manuel Goepfert

Contact : metmap@orbifly.com




SOURCES & CREDITS :

   NOAA       Earth
Advisory